createdAt,value
2022-08-26T00:03:45.090Z,30.88
2022-08-26T00:07:33.057Z,30.89
2022-08-26T00:11:26.784Z,30.83
2022-08-26T00:15:14.613Z,30.71
2022-08-26T00:19:02.327Z,30.79
2022-08-26T00:22:50.320Z,30.47
2022-08-26T00:26:28.573Z,30.47
2022-08-26T00:30:17.594Z,30.48
2022-08-26T00:34:11.266Z,30.47
2022-08-26T00:37:52.420Z,30.50
2022-08-26T00:41:33.969Z,30.71
2022-08-26T00:45:14.703Z,30.54
2022-08-26T00:49:01.393Z,30.55
2022-08-26T00:52:49.970Z,30.54
2022-08-26T00:56:32.003Z,30.55
2022-08-26T01:00:12.903Z,30.43
2022-08-26T01:03:59.040Z,30.65
2022-08-26T01:07:48.180Z,30.45
2022-08-26T01:11:30.380Z,30.42
2022-08-26T01:15:18.087Z,30.42
2022-08-26T01:19:04.877Z,30.45
2022-08-26T01:23:01.612Z,30.52
2022-08-26T01:26:51.142Z,30.44
2022-08-26T01:30:39.244Z,30.48
2022-08-26T01:34:33.339Z,30.54
2022-08-26T01:38:21.154Z,30.54
2022-08-26T01:42:05.416Z,30.58
2022-08-26T01:45:51.053Z,30.54
2022-08-26T01:49:38.708Z,30.61
2022-08-26T01:53:17.648Z,30.57
2022-08-26T01:57:04.666Z,30.74
2022-08-26T02:00:51.514Z,30.90
2022-08-26T02:04:48.592Z,30.57
2022-08-26T02:08:37.651Z,30.63
2022-08-26T02:12:24.352Z,30.50
2022-08-26T02:16:06.598Z,30.44
2022-08-26T02:19:43.389Z,30.27
2022-08-26T02:23:31.421Z,30.09
2022-08-26T02:27:12.559Z,30.12
2022-08-26T02:31:00.671Z,30.17
2022-08-26T02:34:53.247Z,30.21
2022-08-26T02:38:40.979Z,29.99
2022-08-26T02:42:23.944Z,30.08
2022-08-26T02:46:12.974Z,30.02
2022-08-26T02:50:09.511Z,30.09
2022-08-26T02:53:50.324Z,30.31
2022-08-26T02:57:39.238Z,30.40
2022-08-26T03:01:20.206Z,30.35
2022-08-26T03:05:09.688Z,30.25
2022-08-26T03:08:57.394Z,30.45
2022-08-26T03:12:48.093Z,30.35
2022-08-26T03:16:36.167Z,30.14
2022-08-26T03:20:24.704Z,30.14
2022-08-26T03:24:11.792Z,30.13
2022-08-26T03:27:59.654Z,30.01
2022-08-26T03:31:47.046Z,30.11
2022-08-26T03:35:33.751Z,29.90
2022-08-26T03:39:21.663Z,29.69
2022-08-26T03:43:02.206Z,29.96
2022-08-26T03:46:50.210Z,29.89
2022-08-26T03:50:38.170Z,29.79
2022-08-26T03:54:24.649Z,29.77
2022-08-26T03:58:04.918Z,29.48
2022-08-26T04:01:53.535Z,29.59
2022-08-26T04:05:35.111Z,29.60
2022-08-26T04:09:22.915Z,29.72
2022-08-26T04:13:12.654Z,29.62
2022-08-26T04:16:55.347Z,29.49
2022-08-26T04:20:34.498Z,29.64
2022-08-26T04:24:15.517Z,29.80
2022-08-26T04:28:04.959Z,29.50
2022-08-26T04:31:55.548Z,29.90
2022-08-26T04:35:44.405Z,29.96
2022-08-26T04:39:34.575Z,29.79
2022-08-26T04:43:21.585Z,29.96
2022-08-26T04:47:09.526Z,30.16
2022-08-26T04:50:59.172Z,30.02
2022-08-26T04:54:39.516Z,29.91
2022-08-26T04:58:30.230Z,30.21
2022-08-26T05:02:18.322Z,30.50
2022-08-26T05:06:06.794Z,30.93
2022-08-26T05:09:47.654Z,30.92
2022-08-26T05:13:27.836Z,31.02
2022-08-26T05:16:58.144Z,31.39
2022-08-26T05:20:45.835Z,31.18
2022-08-26T05:24:37.311Z,30.87
2022-08-26T05:28:25.297Z,31.17
2022-08-26T05:32:12.003Z,31.27
2022-08-26T05:35:52.473Z,30.93
2022-08-26T05:39:41.266Z,30.81
2022-08-26T05:43:31.316Z,30.79
2022-08-26T05:47:12.248Z,30.69
2022-08-26T05:51:00.098Z,30.73
2022-08-26T05:54:40.602Z,30.99
2022-08-26T05:58:28.372Z,30.79
2022-08-26T06:02:16.148Z,30.74
2022-08-26T06:06:04.422Z,30.89
2022-08-26T06:10:05.429Z,31.08
2022-08-26T06:14:03.856Z,31.27
2022-08-26T06:17:44.333Z,31.24
2022-08-26T06:21:31.832Z,31.55
2022-08-26T06:25:18.580Z,31.92
2022-08-26T06:28:57.421Z,32.19
2022-08-26T06:32:45.235Z,32.25
2022-08-26T06:36:32.977Z,32.22
2022-08-26T06:40:19.308Z,32.46
2022-08-26T06:44:05.569Z,32.05
2022-08-26T06:47:54.390Z,31.82
2022-08-26T06:51:42.360Z,32.54
2022-08-26T06:55:30.146Z,32.63
2022-08-26T06:59:17.964Z,32.66
2022-08-26T07:03:06.307Z,33.05
2022-08-26T07:06:55.535Z,33.12
2022-08-26T07:10:43.577Z,33.88
2022-08-26T07:14:32.186Z,34.65
2022-08-26T07:18:20.156Z,34.85
2022-08-26T07:22:10.985Z,35.17
2022-08-26T07:25:58.732Z,35.03
2022-08-26T07:29:44.449Z,35.04
2022-08-26T07:33:26.650Z,36.67
2022-08-26T07:37:15.038Z,36.31
2022-08-26T07:41:06.047Z,36.32
2022-08-26T07:44:49.163Z,36.48
2022-08-26T07:48:38.175Z,36.64
2022-08-26T07:52:27.587Z,36.81
2022-08-26T07:56:16.327Z,37.16
2022-08-26T08:00:04.281Z,37.26
2022-08-26T08:03:52.504Z,37.31
2022-08-26T08:07:44.621Z,37.36
2022-08-26T08:11:34.244Z,37.49
2022-08-26T08:15:23.574Z,37.82
2022-08-26T08:19:12.069Z,37.81
2022-08-26T08:22:53.535Z,39.06
2022-08-26T08:26:41.012Z,38.13
2022-08-26T08:30:29.370Z,39.16
2022-08-26T08:34:18.119Z,38.92
2022-08-26T08:38:00.555Z,38.93
2022-08-26T08:41:43.213Z,38.62
2022-08-26T08:45:35.948Z,38.82
2022-08-26T08:49:28.063Z,39.44
2022-08-26T08:53:25.829Z,38.67
2022-08-26T08:57:13.390Z,40.20
2022-08-26T09:01:10.613Z,39.89
2022-08-26T09:05:15.122Z,39.52
2022-08-26T09:09:03.566Z,39.45
2022-08-26T09:12:50.631Z,40.19
2022-08-26T09:16:48.793Z,40.40
2022-08-26T09:20:49.350Z,40.36
2022-08-26T09:24:41.809Z,41.11
2022-08-26T09:28:35.952Z,40.20
2022-08-26T09:32:30.402Z,39.91
2022-08-26T09:36:27.151Z,40.75
2022-08-26T09:40:35.030Z,40.05
2022-08-26T09:44:23.121Z,40.50
2022-08-26T09:48:13.712Z,40.77
2022-08-26T09:52:20.897Z,40.27
2022-08-26T09:56:04.366Z,41.01
2022-08-26T09:59:54.557Z,41.78
2022-08-26T10:03:42.671Z,42.08
2022-08-26T10:07:36.254Z,42.10
2022-08-26T10:11:25.233Z,41.89
2022-08-26T10:15:12.820Z,41.74
2022-08-26T10:19:00.160Z,42.05
2022-08-26T10:23:00.646Z,42.24
2022-08-26T10:27:06.659Z,42.89
2022-08-26T10:30:58.338Z,42.11
2022-08-26T10:34:46.502Z,42.14
2022-08-26T10:38:40.745Z,41.93
2022-08-26T10:42:32.323Z,43.16
2022-08-26T10:46:15.460Z,42.93
2022-08-26T10:49:55.584Z,42.64
2022-08-26T10:54:00.139Z,42.64
2022-08-26T10:57:53.570Z,43.69
2022-08-26T11:01:55.875Z,43.90
2022-08-26T11:05:46.548Z,44.80
2022-08-26T11:09:34.078Z,45.17
2022-08-26T11:13:26.197Z,45.75
2022-08-26T11:17:14.036Z,45.80
2022-08-26T11:21:10.242Z,46.23
2022-08-26T11:24:56.104Z,46.27
2022-08-26T11:28:50.376Z,46.02
2022-08-26T11:32:39.201Z,47.02
2022-08-26T11:36:28.173Z,47.14
2022-08-26T11:40:16.223Z,47.02
2022-08-26T11:44:06.927Z,47.41
2022-08-26T11:47:54.692Z,47.44
2022-08-26T11:51:52.125Z,47.04
2022-08-26T11:55:39.844Z,47.49
2022-08-26T11:59:27.891Z,46.51
2022-08-26T12:03:18.597Z,46.97
2022-08-26T12:07:24.105Z,47.07
2022-08-26T12:11:12.705Z,47.32
2022-08-26T12:15:01.529Z,47.87
2022-08-26T12:18:59.869Z,47.31
2022-08-26T12:22:48.412Z,47.21
2022-08-26T12:26:41.943Z,46.88
2022-08-26T12:30:28.811Z,46.27
2022-08-26T12:34:17.830Z,46.69
2022-08-26T12:38:06.211Z,46.35
2022-08-26T12:42:00.346Z,46.29
2022-08-26T12:46:14.204Z,46.60
2022-08-26T12:50:02.187Z,46.57
2022-08-26T12:53:50.448Z,46.78
2022-08-26T12:57:38.366Z,46.84
2022-08-26T13:01:37.926Z,46.41
2022-08-26T13:05:38.043Z,46.63
2022-08-26T13:09:28.223Z,46.50
2022-08-26T13:13:30.932Z,45.62
2022-08-26T13:17:20.246Z,46.24
2022-08-26T13:21:08.151Z,46.85
2022-08-26T13:24:55.955Z,45.93
2022-08-26T13:28:43.680Z,45.04
2022-08-26T13:32:31.991Z,44.51
2022-08-26T13:36:12.938Z,44.85
2022-08-26T13:40:00.325Z,44.92
2022-08-26T13:43:48.982Z,44.97
2022-08-26T14:05:47.392Z,44.31
2022-08-26T14:09:38.571Z,45.92
2022-08-26T14:13:27.820Z,45.47
2022-08-26T14:17:17.681Z,45.79
2022-08-26T14:21:07.435Z,45.76
2022-08-26T14:24:56.861Z,46.06
2022-08-26T14:28:46.322Z,45.79
2022-08-26T14:32:36.511Z,45.84
2022-08-26T14:36:24.577Z,45.84
2022-08-26T14:40:13.184Z,45.55
2022-08-26T14:44:01.821Z,44.86
2022-08-26T14:47:50.257Z,44.82
2022-08-26T14:51:39.250Z,45.60
2022-08-26T14:55:30.281Z,45.37
2022-08-26T14:59:20.407Z,45.22
2022-08-26T15:18:18.319Z,45.40
2022-08-26T15:22:07.269Z,45.56
2022-08-26T15:25:54.899Z,45.68
2022-08-26T15:29:47.045Z,45.52
2022-08-26T15:33:35.481Z,45.49
2022-08-26T15:37:23.944Z,45.11
2022-08-26T15:41:12.511Z,44.25
2022-08-26T15:44:54.433Z,43.77
2022-08-26T15:48:42.905Z,44.33
2022-08-26T15:52:31.389Z,44.58
2022-08-26T15:56:19.783Z,44.17
2022-08-26T16:00:01.008Z,43.63
2022-08-26T16:03:49.491Z,43.78
2022-08-26T16:07:37.950Z,43.71
2022-08-26T16:11:20.232Z,43.82
2022-08-26T16:14:57.688Z,43.81
2022-08-26T16:18:14.047Z,43.76
2022-08-26T16:21:32.901Z,43.70
2022-08-26T16:25:14.272Z,43.90
2022-08-26T16:28:51.883Z,43.50
2022-08-26T16:32:31.317Z,43.34
2022-08-26T16:36:19.936Z,43.24
2022-08-26T16:39:40.194Z,43.10
2022-08-26T16:43:05.308Z,43.23
2022-08-26T16:46:56.031Z,43.29
2022-08-26T16:50:47.813Z,43.25
2022-08-26T16:54:16.497Z,43.21
2022-08-26T16:57:42.009Z,43.14
2022-08-26T17:01:31.744Z,43.24
2022-08-26T17:05:00.521Z,43.08
2022-08-26T17:08:24.245Z,42.63
2022-08-26T17:12:16.934Z,42.27
2022-08-26T17:15:58.472Z,42.09
2022-08-26T17:19:18.926Z,41.65
2022-08-26T17:23:01.750Z,41.09
2022-08-26T17:26:34.120Z,40.57
2022-08-26T17:30:18.808Z,40.06
2022-08-26T17:34:08.193Z,39.46
2022-08-26T17:37:32.856Z,38.87
2022-08-26T17:41:21.388Z,38.22
2022-08-26T17:45:09.833Z,37.69
2022-08-26T17:48:49.569Z,36.96
2022-08-26T17:52:39.698Z,36.00
2022-08-26T17:56:27.481Z,35.36
2022-08-26T18:00:06.997Z,34.95
2022-08-26T18:03:36.618Z,34.50
2022-08-26T18:07:26.125Z,34.41
2022-08-26T18:11:15.989Z,33.91
2022-08-26T18:14:36.093Z,33.75
2022-08-26T18:18:16.721Z,33.51
2022-08-26T18:21:55.324Z,33.39
2022-08-26T18:25:38.687Z,33.35
2022-08-26T18:29:29.433Z,33.37
2022-08-26T18:33:19.080Z,33.40
2022-08-26T18:40:52.185Z,33.27
2022-08-26T18:44:41.443Z,33.56
2022-08-26T18:48:30.538Z,33.62
2022-08-26T18:52:21.958Z,33.70
2022-08-26T18:56:14.316Z,33.34
2022-08-26T19:00:05.497Z,33.08
2022-08-26T19:03:53.571Z,32.80
2022-08-26T19:07:39.397Z,32.33
2022-08-26T19:11:31.578Z,32.29
2022-08-26T19:15:22.181Z,32.09
2022-08-26T19:18:39.583Z,32.18
2022-08-26T19:22:29.570Z,32.08
2022-08-26T19:26:25.486Z,32.06
2022-08-26T19:29:36.126Z,31.78
2022-08-26T19:33:16.802Z,31.44
2022-08-26T19:37:08.859Z,31.39
2022-08-26T19:40:58.652Z,31.28
2022-08-26T19:44:31.825Z,31.41
2022-08-26T19:48:16.632Z,31.68
2022-08-26T19:51:59.821Z,31.85
2022-08-26T19:55:50.819Z,32.41
2022-08-26T19:59:34.774Z,32.48
2022-08-26T20:03:21.552Z,32.44
2022-08-26T20:06:57.567Z,32.33
2022-08-26T20:10:50.117Z,32.24
2022-08-26T20:14:34.175Z,32.22
2022-08-26T20:18:12.001Z,32.16
2022-08-26T20:22:01.357Z,31.97
2022-08-26T20:25:44.237Z,32.00
2022-08-26T20:29:34.787Z,32.02
2022-08-26T20:33:27.467Z,31.81
2022-08-26T20:37:18.460Z,31.69
2022-08-26T20:41:08.018Z,31.43
2022-08-26T20:45:00.376Z,31.25
2022-08-26T20:48:51.388Z,30.95
2022-08-26T20:52:33.031Z,30.70
2022-08-26T20:56:16.583Z,30.77
2022-08-26T21:00:06.706Z,30.84
2022-08-26T21:03:48.460Z,31.10
2022-08-26T21:07:37.774Z,31.20
2022-08-26T21:11:28.183Z,31.31
2022-08-26T21:15:18.448Z,31.30
2022-08-26T21:19:07.143Z,31.34
2022-08-26T21:23:00.970Z,31.55
2022-08-26T21:26:51.414Z,31.80
2022-08-26T21:30:45.009Z,31.92
2022-08-26T21:34:36.980Z,31.71
2022-08-26T21:38:11.224Z,31.31
2022-08-26T21:41:47.020Z,30.98
2022-08-26T21:45:38.477Z,31.01
2022-08-26T21:49:15.728Z,30.16
2022-08-26T21:52:56.904Z,30.33
2022-08-26T21:56:47.965Z,30.05
2022-08-26T22:00:30.096Z,29.84
2022-08-26T22:04:19.852Z,30.03
2022-08-26T22:07:54.210Z,29.96
2022-08-26T22:11:34.034Z,30.03
2022-08-26T22:15:23.326Z,30.12
2022-08-26T22:19:02.536Z,30.19
2022-08-26T22:22:44.459Z,30.17
2022-08-26T22:26:04.459Z,30.39
2022-08-26T22:29:54.815Z,30.73
2022-08-26T22:33:42.445Z,30.89
2022-08-26T22:37:30.172Z,30.99
2022-08-26T22:41:00.561Z,30.87
2022-08-26T22:44:36.384Z,30.82
2022-08-26T22:48:16.407Z,30.76
2022-08-26T22:52:04.094Z,30.63
2022-08-26T22:55:44.436Z,30.40
2022-08-26T22:59:32.117Z,30.34
2022-08-26T23:03:02.395Z,30.24
2022-08-26T23:06:50.140Z,29.90
2022-08-26T23:10:38.029Z,29.59
2022-08-26T23:14:26.226Z,30.11
2022-08-26T23:17:58.512Z,29.21
2022-08-26T23:21:39.364Z,29.67
2022-08-26T23:25:27.572Z,29.49
2022-08-26T23:28:58.676Z,29.77
2022-08-26T23:32:46.525Z,29.56
2022-08-26T23:36:35.110Z,29.61
2022-08-26T23:40:23.235Z,30.07
2022-08-26T23:44:12.170Z,29.99
2022-08-26T23:47:59.921Z,30.23
2022-08-26T23:51:46.125Z,29.89
2022-08-26T23:55:28.498Z,29.39
2022-08-26T23:59:16.106Z,28.47
